Time;durP1;ratioP1;P1;durP2;ratioP2;P2;SDS_P1;SDS_P2;PMS_P1;PMS_P2;Temp;Humidity;BMP_temperature;BMP_pressure;BME280_temperature;BME280_humidity;BME280_pressure;Samples;Min_cycle;Max_cycle;Signal;HPM_P1;HPM_P2
2022/03/11 00:03:00;;;;;;;39.33;14.27;;;;;;;-3.25;59.62;101079.94;8428041;28;20572;-70
2022/03/11 00:07:01;;;;;;;41.20;15.35;;;;;;;-3.32;59.66;101084.25;8441449;28;20756;-71
2022/03/11 00:11:02;;;;;;;36.67;13.57;;;;;;;-3.31;59.96;101075.31;8441685;28;20044;-70
2022/03/11 00:15:05;;;;;;;42.50;15.23;;;;;;;-3.28;60.12;101075.00;8456263;28;20039;-70
2022/03/11 00:19:06;;;;;;;39.47;14.93;;;;;;;-3.34;60.07;101086.25;8447270;28;20056;-70
2022/03/11 00:23:07;;;;;;;44.20;15.40;;;;;;;-3.38;60.37;101074.34;8468682;28;20153;-71
2022/03/11 00:27:08;;;;;;;41.92;15.38;;;;;;;-3.46;60.65;101066.47;8472698;28;20051;-71
2022/03/11 00:31:09;;;;;;;37.70;14.23;;;;;;;-3.51;60.98;101068.78;8458011;28;20423;-70
2022/03/11 00:35:11;;;;;;;42.80;14.63;;;;;;;-3.55;61.53;101063.03;8446800;28;20044;-70
2022/03/11 00:39:13;;;;;;;45.17;15.80;;;;;;;-3.60;61.81;101065.34;8434356;28;20526;-70
2022/03/11 00:43:14;;;;;;;42.97;15.77;;;;;;;-3.65;62.31;101058.94;8458798;28;20120;-70
2022/03/11 00:47:15;;;;;;;44.95;15.60;;;;;;;-3.67;62.65;101058.28;8452086;28;20048;-70
2022/03/11 00:51:15;;;;;;;45.80;15.35;;;;;;;-3.72;62.57;101057.97;8428730;28;20051;-71
2022/03/11 00:55:17;;;;;;;47.92;16.30;;;;;;;-3.66;63.18;101065.19;8437878;28;20044;-71
2022/03/11 00:59:18;;;;;;;48.20;16.58;;;;;;;-3.75;63.11;101060.94;8410888;28;20048;-70
2022/03/11 01:03:19;;;;;;;46.35;17.15;;;;;;;-3.79;63.46;101054.31;8426712;28;20055;-70
2022/03/11 01:07:19;;;;;;;49.05;16.50;;;;;;;-3.80;63.52;101060.59;8439119;28;20459;-69
2022/03/11 01:11:20;;;;;;;40.20;15.00;;;;;;;-3.88;63.87;101059.63;8460676;28;20449;-70
2022/03/11 01:15:21;;;;;;;43.60;14.98;;;;;;;-3.94;63.66;101057.66;8450794;28;20046;-70
2022/03/11 01:19:23;;;;;;;44.92;16.17;;;;;;;-3.98;63.96;101051.06;8460371;28;20552;-70
2022/03/11 01:23:24;;;;;;;43.15;16.23;;;;;;;-4.00;63.96;101053.03;8460933;28;20461;-70
2022/03/11 01:27:25;;;;;;;46.92;16.17;;;;;;;-4.03;64.32;101036.72;8447186;28;20746;-71
2022/03/11 01:31:26;;;;;;;47.80;17.05;;;;;;;-4.03;64.22;101032.28;8464851;28;20139;-69
2022/03/11 01:35:27;;;;;;;50.33;16.42;;;;;;;-4.03;64.07;101031.47;8463101;28;20504;-70
2022/03/11 01:39:28;;;;;;;46.63;17.23;;;;;;;-3.98;63.88;101024.69;8438541;28;20150;-69
2022/03/11 01:43:29;;;;;;;51.13;16.30;;;;;;;-3.98;63.80;101019.41;8445762;28;20414;-70
2022/03/11 01:47:30;;;;;;;46.85;16.58;;;;;;;-4.07;63.97;101015.13;8458946;28;20067;-71
2022/03/11 01:51:34;;;;;;;46.22;16.02;;;;;;;-4.16;64.49;101028.50;8474151;27;20292;-71
2022/03/11 01:55:36;;;;;;;47.35;16.92;;;;;;;-4.22;64.50;101022.06;8444322;28;20058;-71
2022/03/11 01:59:37;;;;;;;50.45;17.25;;;;;;;-4.30;64.90;101022.06;8434666;28;20431;-70
2022/03/11 02:03:38;;;;;;;54.28;17.30;;;;;;;-4.34;66.08;101023.41;8457802;28;20131;-71
2022/03/11 02:07:39;;;;;;;44.80;16.58;;;;;;;-4.34;66.16;101023.41;8464010;28;20051;-70
2022/03/11 02:11:40;;;;;;;45.90;16.50;;;;;;;-4.39;65.89;101020.44;8452070;28;20123;-70
2022/03/11 02:15:41;;;;;;;48.90;17.00;;;;;;;-4.45;67.11;101026.38;8430302;28;20408;-70
2022/03/11 02:19:42;;;;;;;45.13;16.17;;;;;;;-4.47;67.16;101025.69;8430998;28;20177;-70
2022/03/11 02:23:47;;;;;;;48.35;17.58;;;;;;;-4.48;66.84;101026.69;8455750;28;20440;-70
2022/03/11 02:27:47;;;;;;;42.97;17.05;;;;;;;-4.48;66.95;101016.13;8454676;28;20053;-72
2022/03/11 02:31:49;;;;;;;45.28;17.45;;;;;;;-4.57;67.40;101012.69;8432156;28;20495;-69
2022/03/11 02:35:49;;;;;;;42.78;16.00;;;;;;;-4.54;67.38;101017.63;8472920;27;20048;-70
2022/03/11 02:39:52;;;;;;;49.08;17.02;;;;;;;-4.57;67.65;101017.97;8455657;28;20051;-70
2022/03/11 02:43:53;;;;;;;41.35;15.77;;;;;;;-4.56;67.53;101013.50;8456653;28;20063;-69
2022/03/11 02:47:54;;;;;;;51.90;16.35;;;;;;;-4.58;67.78;101020.75;8462366;28;20092;-70
2022/03/11 02:51:56;;;;;;;42.47;15.00;;;;;;;-4.62;67.55;101019.44;8451347;28;20403;-70
2022/03/11 02:55:58;;;;;;;40.75;15.32;;;;;;;-4.69;68.11;101009.53;8436595;28;20067;-69
2022/03/11 02:59:59;;;;;;;46.60;16.25;;;;;;;-4.69;68.11;101008.72;8471902;27;20063;-70
2022/03/11 03:03:59;;;;;;;47.05;16.25;;;;;;;-4.73;67.94;101018.78;8460778;27;20047;-70
2022/03/11 03:08:01;;;;;;;45.42;16.00;;;;;;;-4.73;68.20;101013.50;8461811;28;20116;-69
2022/03/11 03:12:02;;;;;;;41.35;15.40;;;;;;;-4.79;68.33;101008.88;8458804;28;20051;-70
2022/03/11 03:16:03;;;;;;;43.08;15.40;;;;;;;-4.79;68.04;101024.69;8461595;28;20215;-70
2022/03/11 03:20:05;;;;;;;47.00;16.33;;;;;;;-4.83;67.99;101012.84;8461058;28;20100;-70
2022/03/11 03:24:07;;;;;;;43.20;15.38;;;;;;;-4.84;67.75;101005.91;8443969;28;20128;-69
2022/03/11 03:28:08;;;;;;;44.33;16.30;;;;;;;-4.86;68.21;101002.59;8449988;28;20043;-69
2022/03/11 03:32:09;;;;;;;47.70;15.85;;;;;;;-4.91;68.28;101004.91;8455094;28;20048;-69
2022/03/11 03:36:10;;;;;;;44.83;15.30;;;;;;;-4.90;67.74;101006.56;8459856;28;20369;-69
2022/03/11 03:40:12;;;;;;;44.80;15.98;;;;;;;-4.94;68.39;101009.69;8461152;28;20130;-69
2022/03/11 03:44:13;;;;;;;51.22;16.30;;;;;;;-5.01;68.42;101009.50;8458954;28;20039;-72
2022/03/11 03:48:13;;;;;;;46.40;15.07;;;;;;;-5.00;67.87;101011.16;8437164;28;20414;-69
2022/03/11 03:52:14;;;;;;;44.50;16.00;;;;;;;-5.05;68.14;101013.44;8435219;28;20040;-70
2022/03/11 03:56:15;;;;;;;37.05;13.93;;;;;;;-5.06;67.82;101022.31;8461620;27;20044;-69
2022/03/11 04:00:16;;;;;;;41.15;13.55;;;;;;;-5.11;67.70;101019.34;8448954;28;20059;-70
2022/03/11 04:04:17;;;;;;;45.60;14.80;;;;;;;-5.12;67.17;101015.06;8428971;28;20044;-70
2022/03/11 04:08:18;;;;;;;42.78;14.20;;;;;;;-5.05;66.66;101021.34;8458705;28;20039;-69
2022/03/11 04:12:19;;;;;;;35.15;13.50;;;;;;;-5.07;66.24;101025.94;8439912;28;20051;-70
2022/03/11 04:16:20;;;;;;;44.35;14.10;;;;;;;-5.10;66.39;101021.00;8450234;28;20047;-71
2022/03/11 04:20:21;;;;;;;45.67;15.63;;;;;;;-5.11;66.06;101019.34;8439844;28;20050;-71
2022/03/11 04:24:23;;;;;;;39.10;13.20;;;;;;;-5.14;65.86;101024.94;8488846;27;20048;-70
2022/03/11 04:28:25;;;;;;;36.53;13.80;;;;;;;-5.14;65.55;101014.41;8441411;28;20093;-70
2022/03/11 04:32:26;;;;;;;38.58;13.10;;;;;;;-5.14;65.43;101009.16;8465301;28;20344;-70
2022/03/11 04:36:28;;;;;;;35.88;12.05;;;;;;;-5.16;65.11;101016.38;8442300;28;20040;-70
2022/03/11 04:40:29;;;;;;;37.42;13.20;;;;;;;-5.22;64.87;101017.00;8427831;28;20055;-70
2022/03/11 04:44:30;;;;;;;41.88;12.60;;;;;;;-5.25;64.79;101022.59;8426306;28;20044;-71
2022/03/11 04:48:31;;;;;;;31.85;12.50;;;;;;;-5.25;64.52;101027.88;8457068;28;20258;-69
2022/03/11 04:52:33;;;;;;;41.50;13.13;;;;;;;-5.22;64.22;101022.28;8447102;28;20055;-69
2022/03/11 04:56:36;;;;;;;39.70;13.02;;;;;;;-5.16;63.96;101021.63;8468055;27;20031;-68
2022/03/11 05:00:37;;;;;;;39.05;11.85;;;;;;;-5.27;64.16;101019.28;8478867;27;20054;-68
2022/03/11 05:04:38;;;;;;;36.47;12.35;;;;;;;-5.35;64.25;101032.44;8435227;27;20035;-69
2022/03/11 05:08:39;;;;;;;39.95;12.32;;;;;;;-5.33;64.25;101030.47;8476470;27;20131;-69
2022/03/11 05:12:41;;;;;;;40.08;13.07;;;;;;;-5.33;63.96;101043.63;8466235;28;20092;-69
2022/03/11 05:16:41;;;;;;;39.63;12.57;;;;;;;-5.34;63.52;101028.84;8466353;28;20145;-69
2022/03/11 05:20:43;;;;;;;35.10;11.40;;;;;;;-5.39;64.00;101031.13;8479405;27;20051;-69
2022/03/11 05:24:44;;;;;;;34.15;10.40;;;;;;;-5.40;63.75;101029.47;8499914;27;20051;-70
2022/03/11 05:28:45;;;;;;;37.03;11.95;;;;;;;-5.28;63.45;101022.91;8479516;27;20093;-70
2022/03/11 05:32:46;;;;;;;31.90;11.40;;;;;;;-5.24;63.38;101024.25;8464489;28;20054;-69
2022/03/11 05:36:47;;;;;;;36.97;12.38;;;;;;;-5.32;63.40;101032.13;8463373;28;20052;-70
2022/03/11 05:40:48;;;;;;;36.35;12.48;;;;;;;-5.29;63.12;101037.09;8465352;28;20062;-70
2022/03/11 05:44:49;;;;;;;41.60;13.63;;;;;;;-5.26;63.63;101042.03;8465371;28;20126;-70
2022/03/11 05:48:50;;;;;;;37.17;12.07;;;;;;;-5.29;63.44;101037.09;8446015;28;20427;-71
2022/03/11 05:52:51;;;;;;;41.47;12.32;;;;;;;-5.24;63.38;101035.63;8465015;28;20127;-70
2022/03/11 05:56:54;;;;;;;38.75;12.38;;;;;;;-5.22;63.41;101038.06;8463827;28;20056;-70
2022/03/11 06:00:55;;;;;;;37.85;12.38;;;;;;;-5.19;63.40;101048.31;8464371;28;20052;-70
2022/03/11 06:04:56;;;;;;;42.15;12.98;;;;;;;-5.15;63.31;101047.00;8464650;28;20063;-70
2022/03/11 06:08:57;;;;;;;42.22;11.93;;;;;;;-5.12;63.18;101050.13;8464480;28;20040;-69
2022/03/11 06:12:58;;;;;;;38.17;12.23;;;;;;;-4.99;62.79;101054.97;8464238;27;20052;-70
2022/03/11 06:16:59;;;;;;;36.58;12.50;;;;;;;-4.83;62.34;101055.00;8445064;28;20494;-70
2022/03/11 06:21:00;;;;;;;32.28;10.85;;;;;;;-4.71;61.20;101063.44;8478889;27;20131;-71
2022/03/11 06:25:02;;;;;;;33.53;12.10;;;;;;;-4.70;61.07;101063.25;8463600;28;20052;-69
2022/03/11 06:29:04;;;;;;;32.92;11.27;;;;;;;-4.64;61.10;101058.31;8463690;28;20079;-70
2022/03/11 06:33:06;;;;;;;39.05;12.95;;;;;;;-4.58;60.86;101068.22;8463642;28;20047;-69
2022/03/11 06:37:07;;;;;;;33.40;12.90;;;;;;;-4.37;59.58;101076.47;8463800;28;20518;-70
2022/03/11 06:41:08;;;;;;;37.03;11.60;;;;;;;-4.29;59.64;101073.84;8463474;28;20044;-70
2022/03/11 06:45:09;;;;;;;40.28;12.93;;;;;;;-4.23;59.66;101078.47;8463084;28;20057;-70
2022/03/11 06:49:11;;;;;;;31.52;12.23;;;;;;;-4.08;59.32;101076.00;8443941;28;20044;-70
2022/03/11 06:53:11;;;;;;;33.20;12.55;;;;;;;-4.04;59.22;101078.13;8462992;28;20744;-71
2022/03/11 06:57:15;;;;;;;32.85;11.85;;;;;;;-3.97;58.77;101084.41;8462779;28;20052;-71
2022/03/11 07:01:18;;;;;;;42.40;13.48;;;;;;;-3.86;58.75;101081.38;8462669;28;20501;-70
2022/03/11 07:05:19;;;;;;;38.03;13.10;;;;;;;-3.74;58.29;101083.69;8462707;28;20418;-71
2022/03/11 07:09:19;;;;;;;48.95;15.60;;;;;;;-3.60;58.38;101090.94;8462403;28;20134;-71
2022/03/11 07:13:21;;;;;;;35.47;12.82;;;;;;;-3.52;57.73;101088.28;8462254;28;20051;-69
2022/03/11 07:17:21;;;;;;;35.03;13.15;;;;;;;-3.46;58.13;101082.31;8442915;28;20131;-70
2022/03/11 07:21:22;;;;;;;39.83;14.68;;;;;;;-3.30;57.60;101092.84;8462613;28;20071;-69
2022/03/11 07:25:27;;;;;;;43.17;13.40;;;;;;;-3.20;56.77;101082.88;8461892;28;20412;-70
2022/03/11 07:29:28;;;;;;;57.17;15.00;;;;;;;-3.12;57.17;101079.41;8442855;28;20415;-70
2022/03/11 07:33:29;;;;;;;38.85;13.88;;;;;;;-2.92;56.17;101087.72;8462213;28;20099;-70
2022/03/11 07:37:30;;;;;;;38.60;13.40;;;;;;;-2.87;55.67;101093.31;8461777;28;20123;-70
2022/03/11 07:41:32;;;;;;;38.83;12.60;;;;;;;-2.72;54.63;101086.28;8461161;28;20040;-70
2022/03/11 07:45:34;;;;;;;41.70;12.80;;;;;;;-2.65;53.79;101082.78;8461164;28;20055;-69
2022/03/11 07:49:35;;;;;;;31.42;12.43;;;;;;;-2.55;53.28;101077.25;8446452;28;20048;-70
2022/03/11 07:53:36;;;;;;;35.47;10.73;;;;;;;-2.52;53.02;101082.19;8448530;28;20043;-69
2022/03/11 07:57:39;;;;;;;37.17;13.77;;;;;;;-2.40;52.64;101075.50;8461592;28;20520;-71
2022/03/11 08:01:40;;;;;;;26.58;9.80;;;;;;;-2.28;52.26;101084.69;8460798;28;20507;-70
2022/03/11 08:05:41;;;;;;;35.05;10.95;;;;;;;-2.18;51.30;101085.25;8475653;27;20058;-71
2022/03/11 08:09:43;;;;;;;31.38;11.23;;;;;;;-2.02;50.32;101083.47;8475538;27;20043;-72
2022/03/11 08:13:43;;;;;;;37.75;11.07;;;;;;;-1.90;49.94;101082.00;8461304;28;20435;-70
2022/03/11 08:17:48;;;;;;;36.70;11.32;;;;;;;-1.78;49.81;101086.72;8460845;28;20085;-69
2022/03/11 08:21:50;;;;;;;34.05;12.02;;;;;;;-1.62;48.90;101075.13;8459792;28;20047;-71
2022/03/11 08:25:51;;;;;;;40.97;13.88;;;;;;;-1.50;49.64;101073.69;8460951;28;20051;-69
2022/03/11 08:29:53;;;;;;;37.72;13.18;;;;;;;-1.40;48.25;101074.22;8460808;28;20051;-69
2022/03/11 08:33:54;;;;;;;26.02;10.18;;;;;;;-1.40;47.86;101074.22;8434345;28;20480;-71
2022/03/11 08:37:54;;;;;;;39.78;13.50;;;;;;;-1.24;47.24;101077.69;8427306;28;20048;-72
2022/03/11 08:41:55;;;;;;;31.60;11.15;;;;;;;-1.17;47.77;101068.84;8426751;28;20047;-72
2022/03/11 08:45:56;;;;;;;26.55;9.70;;;;;;;-0.97;46.47;101077.03;8426618;28;20457;-71
2022/03/11 08:49:58;;;;;;;30.05;10.68;;;;;;;-0.93;46.70;101071.16;8426996;28;20056;-71
2022/03/11 08:53:58;;;;;;;31.55;10.50;;;;;;;-0.73;46.41;101082.00;8450744;28;20479;-70
2022/03/11 08:57:59;;;;;;;34.95;10.18;;;;;;;-0.64;46.73;101086.19;8424368;28;20047;-70
2022/03/11 09:02:01;;;;;;;26.45;9.30;;;;;;;-0.51;44.93;101086.31;8460465;28;20126;-71
2022/03/11 09:06:02;;;;;;;31.17;9.43;;;;;;;-0.45;45.64;101080.28;8460042;28;20058;-71
2022/03/11 09:10:05;;;;;;;26.15;9.73;;;;;;;-0.29;45.11;101078.38;8460112;28;20040;-70
2022/03/11 09:14:07;;;;;;;24.10;9.50;;;;;;;-0.16;44.68;101079.31;8460153;28;20040;-69
2022/03/11 09:18:08;;;;;;;25.17;9.38;;;;;;;-0.15;44.26;101069.50;8460053;28;20130;-69
2022/03/11 09:22:11;;;;;;;28.88;10.30;;;;;;;-0.01;44.55;101066.78;8460132;28;20058;-74
2022/03/11 09:26:13;;;;;;;25.35;9.50;;;;;;;0.23;44.12;101068.19;8460013;28;20044;-70
2022/03/11 09:30:14;;;;;;;22.98;8.20;;;;;;;0.36;43.66;101068.28;8459916;28;20376;-71
2022/03/11 09:34:15;;;;;;;24.17;9.82;;;;;;;0.57;43.84;101079.88;8464738;28;20495;-73
2022/03/11 09:38:17;;;;;;;20.17;8.23;;;;;;;0.74;43.60;101073.22;8464912;28;20067;-73
2022/03/11 09:42:18;;;;;;;22.35;7.95;;;;;;;0.83;41.85;101069.38;8465747;27;20083;-72
2022/03/11 09:46:19;;;;;;;29.85;10.85;;;;;;;0.83;42.33;101075.53;8465350;28;20093;-70
2022/03/11 09:50:20;;;;;;;27.85;8.10;;;;;;;0.93;40.32;101075.16;8464379;28;20560;-70
2022/03/11 09:54:21;;;;;;;18.58;7.65;;;;;;;1.11;40.23;101075.41;8446732;28;20047;-70
2022/03/11 09:58:22;;;;;;;17.75;7.50;;;;;;;1.25;39.90;101069.13;8454303;28;20193;-72
2022/03/11 10:02:23;;;;;;;20.15;7.30;;;;;;;1.31;39.80;101069.34;8470576;27;20389;-72
2022/03/11 10:06:38;;;;;;;13.27;6.07;;;;;;;1.53;39.89;101060.19;8454966;28;20509;-73
2022/03/11 10:10:39;;;;;;;21.17;7.60;;;;;;;1.58;38.90;101073.72;8464349;28;20051;-73
2022/03/11 10:14:40;;;;;;;17.77;6.72;;;;;;;1.66;38.40;101062.88;8474995;27;20063;-75
2022/03/11 10:18:52;;;;;;;20.08;7.18;;;;;;;1.79;38.69;101070.91;8388240;28;20422;-72
2022/03/11 10:22:53;;;;;;;23.73;7.55;;;;;;;1.88;38.28;101069.66;8463690;28;20139;-73
2022/03/11 10:26:57;;;;;;;24.58;6.70;;;;;;;2.03;37.92;101072.94;8453525;28;20048;-73
2022/03/11 10:31:09;;;;;;;17.05;7.30;;;;;;;2.15;37.03;101075.00;8444072;28;20465;-73
2022/03/11 10:35:11;;;;;;;15.48;7.05;;;;;;;2.35;36.63;101073.13;8461418;28;20129;-72
2022/03/11 10:39:25;;;;;;;16.35;7.00;;;;;;;2.46;35.58;101057.31;8436407;28;20062;-72
2022/03/11 10:43:28;;;;;;;24.33;7.43;;;;;;;2.57;36.23;101058.53;8450072;28;20057;-73
2022/03/11 10:47:34;;;;;;;17.45;7.25;;;;;;;2.70;36.14;101047.81;8443351;28;20055;-72
2022/03/11 10:51:38;;;;;;;22.13;7.43;;;;;;;2.75;35.74;101040.00;8461750;28;20058;-71
2022/03/11 10:55:41;;;;;;;19.70;7.47;;;;;;;2.88;35.39;101050.63;8463220;27;20135;-72
2022/03/11 10:59:42;;;;;;;19.95;7.10;;;;;;;3.00;35.39;101044.66;8462296;28;20047;-72
2022/03/11 11:03:43;;;;;;;16.00;7.60;;;;;;;3.10;35.42;101042.34;8488580;27;20119;-73
2022/03/11 11:07:44;;;;;;;19.02;7.13;;;;;;;3.22;35.13;101045.97;8459414;27;20048;-72
2022/03/11 11:11:45;;;;;;;17.90;7.25;;;;;;;3.27;35.08;101044.31;8458432;28;20585;-72
2022/03/11 11:15:52;;;;;;;21.27;8.35;;;;;;;3.39;34.42;101021.22;8441323;28;20491;-73
2022/03/11 11:19:57;;;;;;;20.45;8.05;;;;;;;3.56;34.66;101032.19;8441147;28;20155;-72
2022/03/11 11:24:01;;;;;;;18.25;7.47;;;;;;;3.65;33.20;101014.88;8457839;28;20048;-72
2022/03/11 11:28:08;;;;;;;20.88;7.50;;;;;;;3.68;33.59;101014.44;8457669;28;20057;-72
2022/03/11 11:32:09;;;;;;;27.67;8.93;;;;;;;3.85;33.80;101024.59;8440778;28;20047;-72
2022/03/11 11:36:10;;;;;;;21.10;9.13;;;;;;;3.96;33.83;101016.69;8439135;28;20058;-72
2022/03/11 11:40:18;;;;;;;22.45;7.22;;;;;;;4.05;33.28;101009.22;8427974;28;20101;-73
2022/03/11 11:44:19;;;;;;;18.50;6.93;;;;;;;4.18;32.62;101019.78;8428193;28;20079;-73
2022/03/11 11:48:35;;;;;;;16.50;7.60;;;;;;;4.20;33.43;101012.34;8427510;28;20301;-73
2022/03/11 11:52:37;;;;;;;18.02;7.72;;;;;;;4.35;33.29;101004.78;8440169;28;20145;-72
2022/03/11 11:56:41;;;;;;;18.83;7.43;;;;;;;4.32;32.29;100999.91;8459975;28;20097;-73
2022/03/11 12:00:42;;;;;;;16.10;7.07;;;;;;;4.45;32.44;100999.75;8459915;28;20054;-72
2022/03/11 12:04:43;;;;;;;18.80;7.00;;;;;;;4.55;32.59;100992.00;8406262;28;20085;-72
2022/03/11 12:08:48;;;;;;;19.38;8.95;;;;;;;4.67;32.48;100987.56;8423164;28;20462;-72
2022/03/11 12:12:49;;;;;;;24.30;8.02;;;;;;;4.87;32.78;100987.31;8423171;28;20048;-72
2022/03/11 12:17:06;;;;;;;29.05;9.57;;;;;;;4.90;32.33;100980.69;8423127;28;20162;-72
2022/03/11 12:21:08;;;;;;;14.13;6.30;;;;;;;5.00;31.55;100970.25;8422976;28;20040;-73
2022/03/11 12:25:11;;;;;;;17.70;7.57;;;;;;;5.05;31.41;100963.19;8389243;28;20489;-72
2022/03/11 12:29:33;;;;;;;19.38;7.85;;;;;;;5.13;30.96;100959.34;8423232;28;20068;-72
2022/03/11 12:33:38;;;;;;;21.63;7.20;;;;;;;5.08;31.10;100956.53;8428837;28;20048;-73
2022/03/11 12:37:39;;;;;;;17.45;7.30;;;;;;;5.14;31.12;100955.63;8460711;28;20043;-72
2022/03/11 12:41:43;;;;;;;21.17;7.38;;;;;;;5.14;31.53;100950.28;8460676;28;20078;-72
2022/03/11 12:45:46;;;;;;;16.17;6.93;;;;;;;5.30;30.74;100944.28;8460683;28;20047;-73
2022/03/11 12:50:00;;;;;;;17.33;6.65;;;;;;;5.29;30.66;100931.91;8441396;28;20612;-72
2022/03/11 12:54:14;;;;;;;19.95;8.98;;;;;;;5.34;30.54;100928.56;8435636;28;20048;-73
2022/03/11 12:58:19;;;;;;;20.92;7.72;;;;;;;5.49;31.11;100937.81;8426796;28;20404;-72
2022/03/11 13:02:21;;;;;;;16.50;7.70;;;;;;;5.46;30.57;100927.53;8426947;28;20071;-72
2022/03/11 13:06:21;;;;;;;20.40;8.15;;;;;;;5.38;30.63;100933.25;8425830;28;20427;-72
2022/03/11 13:10:26;;;;;;;18.35;8.05;;;;;;;5.43;30.80;100928.00;8432735;28;20510;-72
2022/03/11 13:14:26;;;;;;;15.57;7.10;;;;;;;5.50;30.62;100930.56;8464833;27;20048;-72
2022/03/11 13:18:30;;;;;;;17.05;7.43;;;;;;;5.46;30.51;100927.53;8430538;28;20553;-72
2022/03/11 13:22:31;;;;;;;18.25;7.85;;;;;;;5.47;29.92;100923.81;8432604;28;20052;-72
2022/03/11 13:26:32;;;;;;;20.88;7.68;;;;;;;6.12;30.17;100915.69;8433066;28;20423;-72
2022/03/11 13:30:36;;;;;;;15.77;7.47;;;;;;;7.13;28.61;100912.31;8432156;28;20166;-73
2022/03/11 13:34:39;;;;;;;21.05;7.53;;;;;;;8.09;27.86;100914.91;8431342;28;20051;-72
2022/03/11 13:38:44;;;;;;;18.15;7.82;;;;;;;9.09;26.49;100906.41;8453757;27;21278;-72
2022/03/11 13:42:55;;;;;;;16.30;7.38;;;;;;;10.19;25.60;100897.53;8463044;27;20048;-72
2022/03/11 13:47:02;;;;;;;17.95;8.43;;;;;;;10.73;25.62;100897.22;8431835;28;20044;-72
2022/03/11 13:51:10;;;;;;;19.98;7.93;;;;;;;11.93;24.62;100901.06;8477846;27;20059;-71
2022/03/11 13:55:11;;;;;;;18.37;7.97;;;;;;;13.71;21.18;100899.00;8457300;27;20066;-71
2022/03/11 13:59:12;;;;;;;19.88;7.68;;;;;;;13.33;22.90;100897.13;8472272;27;20047;-71
2022/03/11 14:03:19;;;;;;;14.50;8.25;;;;;;;13.20;21.76;100884.22;8464873;28;20052;-72
2022/03/11 14:07:24;;;;;;;16.77;7.70;;;;;;;14.61;20.08;100885.50;8465107;28;20039;-73
2022/03/11 14:11:25;;;;;;;13.95;7.35;;;;;;;15.06;20.71;100880.53;8419762;28;20044;-73
2022/03/11 14:15:31;;;;;;;17.98;7.75;;;;;;;15.51;18.47;100882.53;8431268;28;20569;-73
2022/03/11 14:19:32;;;;;;;17.05;6.78;;;;;;;15.60;18.77;100880.72;8448273;28;20051;-72
2022/03/11 14:23:34;;;;;;;16.80;7.50;;;;;;;15.85;17.58;100870.50;8464206;28;20188;-73
2022/03/11 14:27:35;;;;;;;20.00;7.65;;;;;;;16.18;17.59;100874.75;8461892;28;20043;-72
2022/03/11 14:31:36;;;;;;;15.48;6.57;;;;;;;16.05;17.70;100881.03;8461982;28;20047;-72
2022/03/11 14:35:38;;;;;;;15.55;7.43;;;;;;;15.48;18.01;100869.50;8464809;28;20251;-72
2022/03/11 14:39:39;;;;;;;18.92;7.75;;;;;;;15.65;18.38;100871.66;8445079;28;20063;-73
2022/03/11 14:43:41;;;;;;;12.90;6.43;;;;;;;15.69;17.99;100866.44;8459842;28;20044;-73
2022/03/11 14:47:42;;;;;;;21.42;7.60;;;;;;;15.19;18.07;100874.31;8459738;28;20439;-73
2022/03/11 14:51:43;;;;;;;14.50;6.90;;;;;;;14.09;19.30;100867.38;8454307;28;20074;-73
2022/03/11 14:55:46;;;;;;;18.45;7.95;;;;;;;13.69;19.02;100857.75;8425429;28;20048;-72
2022/03/11 14:59:47;;;;;;;15.40;7.32;;;;;;;14.44;18.51;100858.00;8425585;28;20135;-73
2022/03/11 15:03:48;;;;;;;20.23;7.03;;;;;;;14.73;18.30;100850.53;8408464;28;20048;-72
2022/03/11 15:07:49;;;;;;;14.25;6.53;;;;;;;15.09;17.96;100847.28;8408196;28;20044;-72
2022/03/11 15:11:51;;;;;;;17.20;6.88;;;;;;;15.22;17.70;100835.66;8408302;28;20040;-72
2022/03/11 15:15:52;;;;;;;12.73;6.35;;;;;;;15.11;17.75;100839.63;8428301;28;20047;-72
2022/03/11 15:19:53;;;;;;;16.52;6.78;;;;;;;14.61;18.46;100825.69;8439357;28;20039;-72
2022/03/11 15:23:54;;;;;;;13.23;6.95;;;;;;;14.99;18.14;100820.22;8441703;27;20048;-71
2022/03/11 15:27:58;;;;;;;18.80;7.55;;;;;;;14.45;18.56;100815.31;8455184;28;20548;-72
2022/03/11 15:31:59;;;;;;;12.65;6.07;;;;;;;12.86;19.76;100819.06;8419770;28;20105;-71
2022/03/11 15:36:00;;;;;;;13.68;6.43;;;;;;;11.30;20.46;100822.09;8494532;27;20096;-71
2022/03/11 15:40:01;;;;;;;19.13;7.28;;;;;;;9.52;22.46;100821.81;8461835;28;20043;-72
2022/03/11 15:44:03;;;;;;;13.18;6.13;;;;;;;8.51;23.34;100804.81;8460499;28;20056;-72
2022/03/11 15:48:05;;;;;;;16.08;7.50;;;;;;;7.70;24.44;100809.97;8481089;27;20498;-72
2022/03/11 15:52:07;;;;;;;13.60;6.35;;;;;;;7.43;24.59;100814.44;8454182;28;20040;-72
2022/03/11 15:56:08;;;;;;;22.33;6.53;;;;;;;6.95;25.22;100813.13;8417963;28;20040;-70
2022/03/11 16:00:10;;;;;;;15.27;6.32;;;;;;;6.43;25.86;100808.97;8449676;28;20043;-71
2022/03/11 16:04:11;;;;;;;14.82;6.68;;;;;;;6.10;26.21;100805.13;8469079;27;20043;-69
2022/03/11 16:08:13;;;;;;;15.95;6.68;;;;;;;5.79;26.78;100808.19;8461220;27;20432;-72
2022/03/11 16:12:14;;;;;;;17.15;7.35;;;;;;;5.48;27.31;100802.19;8435249;27;20078;-72
2022/03/11 16:16:16;;;;;;;30.73;6.88;;;;;;;5.19;27.74;100808.47;8454942;28;20092;-71
2022/03/11 16:20:17;;;;;;;31.30;11.20;;;;;;;4.61;28.72;100806.47;8427789;28;20048;-73
2022/03/11 16:24:18;;;;;;;15.07;6.53;;;;;;;4.58;28.83;100809.63;8479591;27;20051;-71
2022/03/11 16:28:19;;;;;;;16.63;6.45;;;;;;;4.28;29.00;100800.81;8495155;27;20043;-72
2022/03/11 16:32:20;;;;;;;16.08;6.32;;;;;;;4.20;28.85;100798.44;8506755;27;20073;-72
2022/03/11 16:36:21;;;;;;;12.60;5.25;;;;;;;3.90;29.25;100813.63;8488228;27;20043;-72
2022/03/11 16:40:23;;;;;;;16.20;6.10;;;;;;;3.77;29.60;100810.03;8462573;27;20059;-72
2022/03/11 16:44:24;;;;;;;17.27;6.18;;;;;;;3.51;29.67;100815.66;8464942;28;20083;-72
2022/03/11 16:48:25;;;;;;;16.35;6.05;;;;;;;3.26;30.21;100806.88;8487142;27;20055;-72
2022/03/11 16:52:25;;;;;;;14.07;5.88;;;;;;;3.15;30.05;100810.25;8480609;27;20418;-76
2022/03/11 16:56:27;;;;;;;16.88;5.85;;;;;;;3.02;29.86;100810.34;8461010;27;20484;-73
2022/03/11 17:00:27;;;;;;;15.95;5.63;;;;;;;2.78;30.19;100810.13;8490451;27;20093;-70
2022/03/11 17:04:29;;;;;;;19.55;6.25;;;;;;;2.64;30.40;100813.94;8461497;27;20043;-69
2022/03/11 17:08:30;;;;;;;21.60;6.75;;;;;;;2.46;31.17;100816.50;8470500;27;20131;-72
2022/03/11 17:12:34;;;;;;;20.42;6.07;;;;;;;2.28;31.11;100809.19;8458130;27;20058;-73
2022/03/11 17:16:34;;;;;;;11.77;5.15;;;;;;;2.25;31.21;100808.81;8455938;27;20490;-71
2022/03/11 17:20:36;;;;;;;17.50;5.97;;;;;;;2.07;31.82;100806.84;8445919;27;20047;-74
2022/03/11 17:24:37;;;;;;;22.17;6.25;;;;;;;1.91;31.75;100797.47;8455473;27;20423;-72
2022/03/11 17:28:38;;;;;;;16.25;6.45;;;;;;;1.83;31.70;100807.56;8436706;27;20055;-72
2022/03/11 17:32:38;;;;;;;16.65;6.35;;;;;;;1.71;32.14;100810.06;8432786;28;20166;-70
2022/03/11 17:36:40;;;;;;;16.52;6.03;;;;;;;1.63;32.45;100810.28;8449533;27;20051;-70
2022/03/11 17:40:40;;;;;;;19.40;7.40;;;;;;;1.55;32.42;100802.50;8473685;27;20525;-71
2022/03/11 17:44:41;;;;;;;20.88;7.47;;;;;;;1.46;32.33;100798.44;8465336;28;20043;-71
2022/03/11 17:48:42;;;;;;;18.88;7.03;;;;;;;1.39;32.74;100802.94;8478466;27;20456;-69
2022/03/11 17:52:45;;;;;;;18.48;6.55;;;;;;;1.26;32.89;100803.81;8449301;28;20046;-71
2022/03/11 17:56:50;;;;;;;17.65;6.10;;;;;;;1.24;32.46;100801.34;8410998;28;20067;-72
2022/03/11 18:00:51;;;;;;;18.38;6.68;;;;;;;1.28;32.77;100799.06;8464890;27;20096;-71
2022/03/11 18:04:52;;;;;;;15.70;6.00;;;;;;;1.18;32.39;100802.16;8503823;27;20047;-70
2022/03/11 18:08:58;;;;;;;27.23;6.53;;;;;;;1.08;32.73;100795.63;8498366;27;20047;-70
2022/03/11 18:12:59;;;;;;;18.85;7.32;;;;;;;0.95;33.04;100793.81;8477209;27;20092;-70
2022/03/11 18:17:00;;;;;;;18.83;6.50;;;;;;;1.01;32.83;100795.63;8427240;27;20073;-74
2022/03/11 18:21:02;;;;;;;18.27;7.10;;;;;;;0.97;32.94;100789.06;8464462;27;20061;-73
2022/03/11 18:25:07;;;;;;;21.35;6.97;;;;;;;0.85;33.09;100790.69;8466374;27;20491;-72
2022/03/11 18:29:15;;;;;;;20.55;6.25;;;;;;;0.78;33.39;100798.69;8456554;27;20039;-71
2022/03/11 18:33:17;;;;;;;19.55;6.90;;;;;;;0.58;33.72;100791.72;8443070;27;20052;-72